createdAt,value
2022-09-12T00:02:04.322Z,82.90
2022-09-12T00:05:46.807Z,83.30
2022-09-12T00:09:28.936Z,83.00
2022-09-12T00:13:11.257Z,83.10
2022-09-12T00:16:52.999Z,83.20
2022-09-12T00:20:35.005Z,83.20
2022-09-12T00:24:16.707Z,83.30
2022-09-12T00:27:58.363Z,83.30
2022-09-12T00:31:41.467Z,83.40
2022-09-12T00:35:23.245Z,83.60
2022-09-12T00:39:05.158Z,83.50
2022-09-12T00:42:46.822Z,83.50
2022-09-12T00:46:41.858Z,83.60
2022-09-12T00:50:23.763Z,83.80
2022-09-12T00:54:10.791Z,83.50
2022-09-12T00:57:54.739Z,84.00
2022-09-12T01:01:36.904Z,83.70
2022-09-12T01:05:18.764Z,83.60
2022-09-12T01:09:03.415Z,83.70
2022-09-12T01:12:45.159Z,83.70
2022-09-12T01:16:26.993Z,83.80
2022-09-12T01:20:16.203Z,83.70
2022-09-12T01:23:57.877Z,84.50
2022-09-12T01:28:00.634Z,84.00
2022-09-12T01:32:19.584Z,84.60
2022-09-12T01:36:17.155Z,84.60
2022-09-12T01:40:03.664Z,84.50
2022-09-12T01:44:06.914Z,84.20
2022-09-12T01:47:51.867Z,84.30
2022-09-12T01:51:38.368Z,84.20
2022-09-12T01:55:51.333Z,84.50
2022-09-12T01:59:38.850Z,85.20
2022-09-12T02:03:24.105Z,84.70
2022-09-12T02:07:13.205Z,84.40
2022-09-12T02:11:15.018Z,85.00
2022-09-12T02:15:02.286Z,84.90
2022-09-12T02:18:50.675Z,84.80
2022-09-12T02:22:33.621Z,85.00
2022-09-12T02:26:36.734Z,84.60
2022-09-12T02:30:19.690Z,85.30
2022-09-12T02:34:28.917Z,84.30
2022-09-12T02:38:17.467Z,84.70
2022-09-12T02:42:01.318Z,84.50
2022-09-12T02:45:43.032Z,84.90
2022-09-12T02:49:27.044Z,84.60
2022-09-12T02:53:08.996Z,85.30
2022-09-12T02:56:50.677Z,85.00
2022-09-12T03:00:45.375Z,85.10
2022-09-12T03:04:39.819Z,85.60
2022-09-12T03:08:43.376Z,85.50
2022-09-12T03:12:46.856Z,85.30
2022-09-12T03:16:33.240Z,85.20
2022-09-12T03:20:23.181Z,85.40
2022-09-12T03:24:33.001Z,85.60
2022-09-12T03:28:15.554Z,85.70
2022-09-12T03:32:17.361Z,85.70
2022-09-12T03:35:59.031Z,86.40
2022-09-12T03:39:41.353Z,86.20
2022-09-12T03:43:23.069Z,86.70
2022-09-12T03:47:08.085Z,86.70
2022-09-12T03:50:52.871Z,86.80
2022-09-12T03:54:34.599Z,86.90
2022-09-12T03:58:16.312Z,87.50
2022-09-12T04:01:58.372Z,86.80
2022-09-12T04:05:40.066Z,86.90
2022-09-12T04:09:22.969Z,86.90
2022-09-12T04:13:04.715Z,87.10
2022-09-12T04:16:46.419Z,87.00
2022-09-12T04:20:28.232Z,86.80
2022-09-12T04:24:09.953Z,86.80
2022-09-12T04:27:51.641Z,87.50
2022-09-12T04:31:35.528Z,86.80
2022-09-12T04:35:17.282Z,87.40
2022-09-12T04:39:00.302Z,87.30
2022-09-12T04:42:41.973Z,87.40
2022-09-12T04:46:23.660Z,87.40
2022-09-12T04:50:06.962Z,87.50
2022-09-12T04:53:52.926Z,87.80
2022-09-12T04:57:35.562Z,88.10
2022-09-12T05:01:19.371Z,87.60
2022-09-12T05:05:01.094Z,87.70
2022-09-12T05:08:42.811Z,87.30
2022-09-12T05:12:24.987Z,87.30
2022-09-12T05:16:06.916Z,87.40
2022-09-12T05:19:48.752Z,87.30
2022-09-12T05:23:30.626Z,87.50
2022-09-12T05:27:12.310Z,87.60
2022-09-12T05:31:04.913Z,87.70
2022-09-12T05:34:46.614Z,88.40
2022-09-12T05:38:29.255Z,87.80
2022-09-12T05:42:12.178Z,87.80
2022-09-12T05:45:53.907Z,87.90
2022-09-12T05:49:36.161Z,87.60
2022-09-12T05:53:19.922Z,87.60
2022-09-12T05:57:01.617Z,87.90
2022-09-12T06:00:43.629Z,88.00
2022-09-12T06:04:25.509Z,88.00
2022-09-12T06:08:07.177Z,88.20
2022-09-12T06:11:51.858Z,88.10
2022-09-12T06:15:33.913Z,88.60
2022-09-12T06:19:21.752Z,88.30
2022-09-12T06:23:03.499Z,88.80
2022-09-12T06:26:45.378Z,88.40
2022-09-12T06:30:27.925Z,88.50
2022-09-12T06:34:12.075Z,88.50
2022-09-12T06:37:53.767Z,88.50
2022-09-12T06:41:39.406Z,88.50
2022-09-12T06:45:26.027Z,89.20
2022-09-12T06:49:08.142Z,88.60
2022-09-12T06:52:51.062Z,88.50
2022-09-12T06:56:32.833Z,88.40
2022-09-12T07:00:15.132Z,88.40
2022-09-12T07:04:00.811Z,88.20
2022-09-12T07:07:42.551Z,88.10
2022-09-12T07:11:26.738Z,87.90
2022-09-12T07:15:09.058Z,87.90
2022-09-12T07:18:51.834Z,87.60
2022-09-12T07:22:34.851Z,87.70
2022-09-12T07:26:16.709Z,87.60
2022-09-12T07:30:00.695Z,87.40
2022-09-12T07:33:42.696Z,87.70
2022-09-12T07:37:24.529Z,87.40
2022-09-12T07:41:17.790Z,87.30
2022-09-12T07:44:59.472Z,87.30
2022-09-12T07:48:41.253Z,86.60
2022-09-12T07:52:23.112Z,86.70
2022-09-12T07:56:05.516Z,86.30
2022-09-12T07:59:52.871Z,86.40
2022-09-12T08:03:37.982Z,86.60
2022-09-12T08:07:20.073Z,86.60
2022-09-12T08:11:02.737Z,86.10
2022-09-12T08:14:44.450Z,85.50
2022-09-12T08:18:29.356Z,85.60
2022-09-12T08:22:12.288Z,85.60
2022-09-12T08:26:01.334Z,85.30
2022-09-12T08:29:45.109Z,85.40
2022-09-12T08:33:32.898Z,84.60
2022-09-12T08:37:14.799Z,84.50
2022-09-12T08:41:05.272Z,84.40
2022-09-12T08:45:16.433Z,84.30
2022-09-12T08:48:58.331Z,83.70
2022-09-12T08:52:46.278Z,83.20
2022-09-12T08:56:31.564Z,82.70
2022-09-12T09:00:15.918Z,82.50
2022-09-12T09:04:17.340Z,81.90
2022-09-12T09:08:34.727Z,81.90
2022-09-12T09:12:26.737Z,81.70
2022-09-12T09:16:10.930Z,81.40
2022-09-12T09:20:22.812Z,81.30
2022-09-12T09:24:06.661Z,81.10
2022-09-12T09:28:02.215Z,80.60
2022-09-12T09:31:45.254Z,79.60
2022-09-12T09:35:36.711Z,80.20
2022-09-12T09:39:33.919Z,79.60
2022-09-12T09:43:15.562Z,79.10
2022-09-12T09:46:58.735Z,78.70
2022-09-12T09:50:40.670Z,78.70
2022-09-12T09:54:24.650Z,78.60
2022-09-12T09:58:06.539Z,78.00
2022-09-12T10:01:56.749Z,77.00
2022-09-12T10:05:52.690Z,76.10
2022-09-12T10:09:35.354Z,76.50
2022-09-12T10:13:24.734Z,75.80
2022-09-12T10:17:34.213Z,75.30
2022-09-12T10:21:47.953Z,75.40
2022-09-12T10:25:29.634Z,75.40
2022-09-12T10:29:14.971Z,75.20
2022-09-12T10:33:07.300Z,76.10
2022-09-12T10:36:49.035Z,74.10
2022-09-12T10:40:36.139Z,75.20
2022-09-12T10:44:26.062Z,74.20
2022-09-12T10:48:35.576Z,74.80
2022-09-12T10:52:24.859Z,75.00
2022-09-12T10:56:14.407Z,73.60
2022-09-12T11:00:27.440Z,71.30
2022-09-12T11:04:38.208Z,71.00
2022-09-12T11:08:40.955Z,71.10
2022-09-12T11:13:00.665Z,71.00
2022-09-12T11:17:19.732Z,70.40
2022-09-12T11:21:10.479Z,69.60
2022-09-12T11:25:22.362Z,68.40
2022-09-12T11:29:51.815Z,69.00
2022-09-12T11:33:43.502Z,67.20
2022-09-12T11:37:44.290Z,67.60
2022-09-12T11:41:38.757Z,67.00
2022-09-12T11:45:24.675Z,66.60
2022-09-12T11:49:09.531Z,66.10
2022-09-12T11:52:51.236Z,65.90
2022-09-12T11:56:33.515Z,66.70
2022-09-12T12:00:17.683Z,65.90
2022-09-12T12:03:59.440Z,66.10
2022-09-12T12:07:45.579Z,65.50
2022-09-12T12:11:45.403Z,65.90
2022-09-12T12:15:27.111Z,64.70
2022-09-12T12:19:28.212Z,63.80
2022-09-12T12:23:26.914Z,63.60
2022-09-12T12:27:25.354Z,64.00
2022-09-12T12:31:09.868Z,63.70
2022-09-12T12:34:51.725Z,63.50
2022-09-12T12:38:34.050Z,63.40
2022-09-12T12:42:36.751Z,63.40
2022-09-12T12:46:19.968Z,63.40
2022-09-12T12:50:04.805Z,63.50
2022-09-12T12:53:46.517Z,63.10
2022-09-12T12:57:46.556Z,63.00
2022-09-12T13:01:28.573Z,62.70
2022-09-12T13:05:21.119Z,63.20
2022-09-12T13:09:05.499Z,61.30
2022-09-12T13:12:47.478Z,61.60
2022-09-12T13:16:38.961Z,62.10
2022-09-12T13:20:29.031Z,61.10
2022-09-12T13:24:15.886Z,61.00
2022-09-12T13:28:20.528Z,61.40
2022-09-12T13:32:02.615Z,61.10
2022-09-12T13:35:53.730Z,61.00
2022-09-12T13:39:44.596Z,60.80
2022-09-12T13:43:41.569Z,59.70
2022-09-12T13:47:37.383Z,58.80
2022-09-12T13:51:25.097Z,58.30
2022-09-12T13:55:08.993Z,58.30
2022-09-12T13:58:56.876Z,59.10
2022-09-12T14:02:39.780Z,57.90
2022-09-12T14:06:22.526Z,58.40
2022-09-12T14:10:05.930Z,59.00
2022-09-12T14:13:48.490Z,58.40
2022-09-12T14:17:35.171Z,58.00
2022-09-12T14:21:28.558Z,57.60
2022-09-12T14:25:24.484Z,57.10
2022-09-12T14:29:06.603Z,57.50
2022-09-12T14:33:10.118Z,57.80
2022-09-12T14:36:56.200Z,57.60
2022-09-12T14:40:51.162Z,56.70
2022-09-12T14:44:33.090Z,56.70
2022-09-12T14:48:17.919Z,57.50
2022-09-12T14:52:18.483Z,57.60
2022-09-12T14:56:13.112Z,57.70
2022-09-12T15:00:13.795Z,57.90
2022-09-12T15:03:56.202Z,57.20
2022-09-12T15:07:54.183Z,57.10
2022-09-12T15:11:35.979Z,57.40
2022-09-12T15:15:19.926Z,58.80
2022-09-12T15:19:01.605Z,57.80
2022-09-12T15:22:43.573Z,58.60
2022-09-12T15:26:27.495Z,58.30
2022-09-12T15:30:13.234Z,58.60
2022-09-12T15:33:55.489Z,58.40
2022-09-12T15:37:37.203Z,57.90
2022-09-12T15:41:19.775Z,57.80
2022-09-12T15:45:02.789Z,58.30
2022-09-12T15:48:44.894Z,58.30
2022-09-12T15:52:27.191Z,58.30
2022-09-12T15:56:08.944Z,58.30
2022-09-12T15:59:50.886Z,58.60
2022-09-12T16:03:32.628Z,58.90
2022-09-12T16:07:14.343Z,58.20
2022-09-12T16:10:58.723Z,58.70
2022-09-12T16:14:40.406Z,58.90
2022-09-12T16:18:22.202Z,59.20
2022-09-12T16:22:04.084Z,58.80
2022-09-12T16:25:46.327Z,59.40
2022-09-12T16:29:29.202Z,59.20
2022-09-12T16:33:11.948Z,59.30
2022-09-12T16:36:53.761Z,59.80
2022-09-12T16:40:35.457Z,59.80
2022-09-12T16:44:17.161Z,60.30
2022-09-12T16:47:58.881Z,60.20
2022-09-12T16:51:44.825Z,60.30
2022-09-12T16:55:31.395Z,60.50
2022-09-12T16:59:16.677Z,61.00
2022-09-12T17:02:59.244Z,60.40
2022-09-12T17:06:41.958Z,60.90
2022-09-12T17:10:23.808Z,61.00
2022-09-12T17:14:07.746Z,61.10
2022-09-12T17:17:52.078Z,61.00
2022-09-12T17:21:39.265Z,61.20
2022-09-12T17:25:20.946Z,61.60
2022-09-12T17:29:03.121Z,61.20
2022-09-12T17:32:44.843Z,61.40
2022-09-12T17:36:26.785Z,61.60
2022-09-12T17:40:09.475Z,61.80
2022-09-12T17:43:54.639Z,61.70
2022-09-12T17:47:36.335Z,62.10
2022-09-12T17:51:18.242Z,62.50
2022-09-12T17:54:59.920Z,62.70
2022-09-12T17:58:41.618Z,63.40
2022-09-12T18:02:23.682Z,63.90
2022-09-12T18:06:05.582Z,64.80
2022-09-12T18:09:47.820Z,64.20
2022-09-12T18:13:29.519Z,64.80
2022-09-12T18:17:11.566Z,65.30
2022-09-12T18:20:53.534Z,64.80
2022-09-12T18:24:35.491Z,64.40
2022-09-12T18:28:18.634Z,64.60
2022-09-12T18:32:00.531Z,64.70
2022-09-12T18:35:42.210Z,64.50
2022-09-12T18:39:27.697Z,64.80
2022-09-12T18:43:09.761Z,65.20
2022-09-12T18:46:51.521Z,65.40
2022-09-12T18:50:34.386Z,64.80
2022-09-12T18:54:17.790Z,66.50
2022-09-12T18:57:59.609Z,65.80
2022-09-12T19:01:43.005Z,65.40
2022-09-12T19:05:24.794Z,66.40
2022-09-12T19:09:08.343Z,66.30
2022-09-12T19:12:50.175Z,66.40
2022-09-12T19:16:32.015Z,66.40
2022-09-12T19:20:14.035Z,66.80
2022-09-12T19:23:57.105Z,66.40
2022-09-12T19:27:39.597Z,66.70
2022-09-12T19:31:24.330Z,66.90
2022-09-12T19:35:06.386Z,67.20
2022-09-12T19:38:48.065Z,67.30
2022-09-12T19:42:31.056Z,66.90
2022-09-12T19:46:22.537Z,67.90
2022-09-12T19:50:04.707Z,67.50
2022-09-12T19:53:46.545Z,68.40
2022-09-12T19:57:28.749Z,69.30
2022-09-12T20:01:18.114Z,68.10
2022-09-12T20:05:00.014Z,68.70
2022-09-12T20:08:44.613Z,68.70
2022-09-12T20:12:28.017Z,69.40
2022-09-12T20:16:10.649Z,69.00
2022-09-12T20:19:54.627Z,68.00
2022-09-12T20:23:36.334Z,68.90
2022-09-12T20:27:18.132Z,68.80
2022-09-12T20:31:08.025Z,69.00
2022-09-12T20:35:49.811Z,69.10
2022-09-12T20:39:34.372Z,69.70
2022-09-12T20:43:16.067Z,69.40
2022-09-12T20:46:58.036Z,70.00
2022-09-12T20:50:41.083Z,69.60
2022-09-12T20:54:23.319Z,70.30
2022-09-12T20:58:05.257Z,70.00
2022-09-12T21:01:47.184Z,70.00
2022-09-12T21:05:28.915Z,70.10
2022-09-12T21:09:10.682Z,70.00
2022-09-12T21:12:52.773Z,70.50
2022-09-12T21:16:38.462Z,71.10
2022-09-12T21:20:20.371Z,70.90
2022-09-12T21:24:02.884Z,70.50
2022-09-12T21:27:44.584Z,70.40
2022-09-12T21:31:26.467Z,70.40
2022-09-12T21:35:08.714Z,70.50
2022-09-12T21:38:50.454Z,70.60
2022-09-12T21:42:34.254Z,70.70
2022-09-12T21:46:16.059Z,71.40
2022-09-12T21:49:58.425Z,71.30
2022-09-12T21:53:40.109Z,71.00
2022-09-12T21:57:21.810Z,71.30
2022-09-12T22:01:05.949Z,71.40
2022-09-12T22:04:47.797Z,71.30
2022-09-12T22:08:30.218Z,71.60
2022-09-12T22:12:13.329Z,71.20
2022-09-12T22:15:55.332Z,71.20
2022-09-12T22:19:37.193Z,71.10
2022-09-12T22:23:37.293Z,71.10
2022-09-12T22:27:18.977Z,71.20
2022-09-12T22:31:01.211Z,71.30
2022-09-12T22:34:42.999Z,71.30
2022-09-12T22:38:26.014Z,71.40
2022-09-12T22:42:09.271Z,71.50
2022-09-12T22:45:51.039Z,71.70
2022-09-12T22:49:34.926Z,71.90
2022-09-12T22:53:16.610Z,72.20
2022-09-12T22:56:58.309Z,72.30
2022-09-12T23:00:40.400Z,72.30
2022-09-12T23:04:22.134Z,72.50
2022-09-12T23:08:03.845Z,72.70
2022-09-12T23:11:46.062Z,73.20
2022-09-12T23:15:28.272Z,73.50
2022-09-12T23:19:09.998Z,74.00
2022-09-12T23:22:51.726Z,73.40
2022-09-12T23:26:33.903Z,73.60
2022-09-12T23:30:19.913Z,73.80
2022-09-12T23:34:03.910Z,74.10
2022-09-12T23:37:46.674Z,74.50
2022-09-12T23:41:28.642Z,74.60
2022-09-12T23:45:10.513Z,74.80
2022-09-12T23:48:53.424Z,74.70
2022-09-12T23:52:35.189Z,75.40
2022-09-12T23:56:16.949Z,75.30
2022-09-12T23:59:59.110Z,75.30
